Time;durP1;ratioP1;P1;durP2;ratioP2;P2;SDS_P1;SDS_P2;PMS_P1;PMS_P2;Temp;Humidity;BMP_temperature;BMP_pressure;BME280_temperature;BME280_humidity;BME280_pressure;Samples;Min_cycle;Max_cycle;Signal;HPM_P1;HPM_P2
2022/04/05 00:00:54;;;;;;;11.10;6.43;;;4.50;95.30;;;2.44;69.87;99517.13;10379265;28;96631;-77
2022/04/05 00:05:57;;;;;;;14.10;7.15;;;4.50;96.60;;;2.36;70.26;99517.81;10376793;28;96636;-77
2022/04/05 00:11:17;;;;;;;9.37;5.80;;;4.40;96.20;;;2.33;70.71;99508.41;10377188;28;96989;-78
2022/04/05 00:16:20;;;;;;;11.77;6.20;;;4.40;96.60;;;2.29;71.60;99508.81;10388988;28;96554;-78
2022/04/05 00:21:23;;;;;;;15.20;5.80;;;4.30;97.50;;;2.34;71.61;99498.72;10395883;28;96801;-78
2022/04/05 00:26:26;;;;;;;13.57;6.50;;;4.30;97.50;;;2.32;72.30;99504.13;10382167;28;97067;-78
2022/04/05 00:31:29;;;;;;;11.40;6.30;;;4.30;98.70;;;2.26;72.58;99502.03;10375353;28;97481;-78
2022/04/05 00:36:32;;;;;;;13.47;6.33;;;4.30;99.10;;;2.23;73.09;99504.09;10399932;28;96509;-78
2022/04/05 00:41:35;;;;;;;12.63;7.40;;;4.30;99.60;;;2.20;73.60;99494.69;10409919;27;96472;-78
2022/04/05 00:46:39;;;;;;;13.30;7.00;;;4.20;99.60;;;2.17;73.53;99499.38;10374164;28;96548;-78
2022/04/05 00:51:42;;;;;;;14.20;6.87;;;4.20;99.60;;;2.16;73.94;99495.94;10397338;28;96522;-78
2022/04/05 00:56:47;;;;;;;12.37;7.17;;;4.20;99.80;;;2.15;74.63;99495.06;10387196;28;96843;-78
2022/04/05 01:01:52;;;;;;;12.83;6.97;;;4.20;99.90;;;2.14;74.49;99487.34;10399001;28;97494;-78
2022/04/05 01:06:56;;;;;;;10.63;6.97;;;4.20;99.90;;;2.15;75.14;99481.97;10387633;28;97171;-78
2022/04/05 01:11:58;;;;;;;12.30;7.23;;;4.20;99.90;;;2.17;75.37;99478.41;10375026;28;96504;-78
2022/04/05 01:17:03;;;;;;;12.70;7.77;;;4.30;99.90;;;2.19;75.67;99477.31;10365218;28;98509;-78
2022/04/05 01:22:06;;;;;;;12.13;8.17;;;4.20;99.90;;;2.22;76.55;99482.28;10352312;28;96459;-78
2022/04/05 01:27:16;;;;;;;13.13;7.77;;;4.30;99.90;;;2.25;76.84;99484.63;10371339;28;97624;-78
2022/04/05 01:32:19;;;;;;;19.97;11.50;;;4.30;99.90;;;2.28;77.19;99484.38;10392287;28;96486;-78
2022/04/05 01:37:22;;;;;;;18.23;11.07;;;4.40;99.90;;;2.31;77.72;99484.09;10387176;28;96556;-78
2022/04/05 01:42:25;;;;;;;17.37;10.03;;;4.40;99.90;;;2.33;77.94;99479.56;10374314;28;96452;-78
2022/04/05 01:47:28;;;;;;;17.37;10.07;;;4.40;99.90;;;2.37;78.15;99474.88;10356698;28;96450;-79
2022/04/05 01:52:31;;;;;;;14.33;9.50;;;4.40;99.90;;;2.41;78.39;99473.66;10384182;28;96588;-78
2022/04/05 01:57:34;;;;;;;16.03;8.20;;;4.50;99.90;;;2.44;78.51;99465.50;10386425;28;97568;-78
2022/04/05 02:02:37;;;;;;;19.57;10.80;;;4.50;99.90;;;2.46;78.76;99462.75;10393590;28;96543;-78
2022/04/05 02:07:40;;;;;;;32.27;16.27;;;4.50;99.90;;;2.48;79.08;99455.59;10405262;28;96397;-78
2022/04/05 02:12:43;;;;;;;28.70;13.27;;;4.50;99.90;;;2.50;78.98;99451.03;10389490;28;98534;-78
2022/04/05 02:17:46;;;;;;;22.13;12.17;;;4.60;99.90;;;2.50;79.16;99440.56;10354288;28;96594;-78
2022/04/05 02:22:49;;;;;;;23.23;11.57;;;4.60;99.90;;;2.51;79.68;99442.19;10429961;27;96549;-78
2022/04/05 02:27:52;;;;;;;18.47;10.43;;;4.60;99.90;;;2.53;79.29;99435.88;10378408;28;99063;-78
2022/04/05 02:32:55;;;;;;;15.07;8.67;;;4.60;99.90;;;2.55;79.93;99433.94;10367905;28;96530;-78
2022/04/05 02:38:02;;;;;;;20.87;10.40;;;4.60;99.90;;;2.59;79.63;99437.13;10391386;28;96502;-80
2022/04/05 02:43:05;;;;;;;13.10;7.70;;;4.70;99.90;;;2.64;79.69;99429.69;10379970;28;96659;-78
2022/04/05 02:48:09;;;;;;;13.07;7.30;;;4.70;99.90;;;2.71;79.20;99428.19;10364271;28;96453;-78
2022/04/05 02:53:12;;;;;;;17.20;8.30;;;4.80;99.90;;;2.80;78.34;99418.63;10400075;28;96513;-77
2022/04/05 02:58:15;;;;;;;14.43;6.93;;;4.80;99.90;;;2.92;77.96;99428.84;10402253;28;96510;-78
2022/04/05 03:03:18;;;;;;;13.17;6.97;;;4.90;99.90;;;3.00;77.25;99416.84;10398125;28;96738;-78
2022/04/05 03:08:22;;;;;;;13.80;8.60;;;5.00;99.90;;;3.03;77.79;99419.19;10380986;28;96569;-78
2022/04/05 03:13:25;;;;;;;11.00;7.07;;;5.00;99.90;;;3.04;77.42;99405.09;10378256;28;96608;-77
2022/04/05 03:18:28;;;;;;;15.00;7.90;;;5.10;99.90;;;3.04;77.76;99405.94;10388932;28;96678;-78
2022/04/05 03:23:31;;;;;;;14.93;8.60;;;5.10;99.90;;;3.07;77.93;99399.59;10419581;28;96633;-77
2022/04/05 03:28:34;;;;;;;13.47;7.67;;;5.10;99.90;;;3.09;77.41;99406.34;10375297;28;97174;-77
2022/04/05 03:33:37;;;;;;;13.23;8.00;;;5.10;99.90;;;3.13;76.29;99391.16;10378414;28;96532;-78
2022/04/05 03:38:40;;;;;;;14.70;8.40;;;5.10;99.90;;;3.19;76.29;99382.72;10378064;28;97062;-77
2022/04/05 03:43:43;;;;;;;15.90;7.47;;;5.20;99.90;;;3.21;76.87;99391.28;10376044;28;96651;-77
2022/04/05 03:48:46;;;;;;;11.77;7.30;;;5.30;99.90;;;3.22;76.88;99374.53;10369109;28;96460;-78
2022/04/05 03:53:49;;;;;;;13.53;6.53;;;5.30;99.90;;;3.21;77.14;99370.28;10406023;28;97418;-78
2022/04/05 03:58:52;;;;;;;10.00;6.27;;;5.20;99.90;;;3.24;76.86;99367.38;10351174;28;96531;-77
2022/04/05 04:03:55;;;;;;;8.17;5.27;;;5.20;99.90;;;3.32;76.17;99364.88;10378672;28;96570;-77
2022/04/05 04:08:58;;;;;;;10.23;5.03;;;5.30;99.90;;;3.43;75.70;99362.06;10380688;28;97175;-77
2022/04/05 04:14:01;;;;;;;8.03;5.10;;;5.40;99.90;;;3.60;74.76;99365.75;10402194;28;97230;-77
2022/04/05 04:19:04;;;;;;;10.10;5.97;;;5.50;99.90;;;3.76;73.54;99360.69;10398982;28;96541;-77
2022/04/05 04:24:07;;;;;;;8.63;5.53;;;5.60;99.90;;;3.89;72.61;99363.00;10379310;28;96724;-77
2022/04/05 04:29:10;;;;;;;10.27;5.83;;;5.70;99.90;;;3.96;72.42;99361.47;10393356;28;98617;-77
2022/04/05 04:34:13;;;;;;;11.43;6.57;;;5.80;99.90;;;4.01;72.96;99358.38;10376911;28;98843;-77
2022/04/05 04:39:17;;;;;;;13.30;8.60;;;5.90;99.90;;;4.06;73.03;99366.66;10395671;28;96546;-78
2022/04/05 04:44:20;;;;;;;10.07;6.00;;;6.00;99.90;;;4.11;72.77;99355.69;10382073;28;96490;-77
2022/04/05 04:49:24;;;;;;;10.43;6.13;;;6.00;99.90;;;4.18;71.33;99359.38;10358303;28;96722;-78
2022/04/05 04:54:27;;;;;;;8.80;6.20;;;6.10;99.90;;;4.25;71.08;99365.72;10377046;28;97891;-77
2022/04/05 04:59:30;;;;;;;10.03;5.70;;;6.20;99.90;;;4.34;70.50;99367.47;10373368;28;96559;-77
2022/04/05 05:04:32;;;;;;;9.07;5.50;;;6.20;99.90;;;4.39;70.00;99365.22;10373807;28;96801;-77
2022/04/05 05:09:35;;;;;;;9.83;6.00;;;6.30;99.90;;;4.47;69.27;99370.56;10373978;28;96493;-77
2022/04/05 05:14:39;;;;;;;13.97;9.63;;;6.30;99.40;;;4.52;68.81;99364.84;10402688;27;98364;-77
2022/04/05 05:19:42;;;;;;;8.87;5.67;;;6.40;99.20;;;4.55;69.28;99365.38;10355215;28;96851;-77
2022/04/05 05:24:45;;;;;;;8.20;5.03;;;6.40;98.90;;;4.57;69.20;99367.88;10373895;28;96612;-78
2022/04/05 05:29:48;;;;;;;7.77;5.30;;;6.40;99.10;;;4.59;69.51;99363.28;10355400;28;96536;-77
2022/04/05 05:34:51;;;;;;;21.60;10.83;;;6.40;99.00;;;4.62;69.73;99368.25;10357702;28;96545;-77
2022/04/05 05:39:54;;;;;;;10.50;5.23;;;6.50;99.10;;;4.67;70.08;99368.59;10371990;28;96589;-77
2022/04/05 05:44:57;;;;;;;8.83;5.40;;;6.50;99.40;;;4.74;70.87;99368.84;10375197;28;96426;-77
2022/04/05 05:50:00;;;;;;;9.77;5.60;;;6.60;99.50;;;4.79;70.73;99369.19;10374487;28;97486;-77
2022/04/05 05:55:04;;;;;;;11.27;5.07;;;6.60;99.40;;;4.88;70.30;99384.09;10357383;28;96863;-77
2022/04/05 06:00:20;;;;;;;8.97;4.60;;;6.70;99.40;;;5.01;69.79;99384.53;10371045;28;96652;-77
2022/04/05 06:05:25;;;;;;;14.43;6.30;;;6.80;99.10;;;5.19;68.97;99391.59;10366051;28;96574;-78
2022/04/05 06:10:28;;;;;;;111.43;25.57;;;7.00;98.90;;;5.28;67.47;99383.63;10352943;28;96587;-77
2022/04/05 06:15:32;;;;;;;16.70;7.70;;;7.00;98.00;;;5.38;67.77;99391.41;10372163;28;96403;-77
2022/04/05 06:20:35;;;;;;;14.23;8.43;;;7.10;97.90;;;5.55;67.12;99393.16;10372076;28;96570;-77
2022/04/05 06:25:38;;;;;;;8.30;5.77;;;7.30;97.70;;;5.75;66.02;99387.66;10372925;28;96892;-77
2022/04/05 06:30:41;;;;;;;7.50;5.53;;;7.50;97.20;;;5.90;64.50;99380.84;10371121;28;96972;-78
2022/04/05 06:35:47;;;;;;;8.17;5.13;;;7.60;96.30;;;6.01;63.98;99387.69;10389209;28;96532;-78
2022/04/05 06:40:50;;;;;;;31.53;10.97;;;7.70;95.60;;;6.19;64.39;99395.50;10371768;28;96484;-78
2022/04/05 06:45:53;;;;;;;13.23;7.23;;;7.80;95.30;;;6.38;63.58;99385.50;10384016;28;96588;-78
2022/04/05 06:50:57;;;;;;;7.73;5.20;;;8.00;94.80;;;6.65;62.89;99376.47;10384194;28;96459;-78
2022/04/05 06:56:00;;;;;;;7.63;4.73;;;8.20;94.20;;;6.99;61.90;99383.44;10371616;28;96481;-78
2022/04/05 07:01:03;;;;;;;8.43;4.73;;;8.50;93.90;;;7.18;60.24;99382.28;10370779;28;96597;-78
2022/04/05 07:06:06;;;;;;;9.77;4.93;;;8.70;92.20;;;7.35;60.05;99375.19;10371298;28;96961;-78
2022/04/05 07:11:09;;;;;;;8.07;4.80;;;8.90;92.20;;;7.56;59.48;99375.50;10350981;28;97355;-78
2022/04/05 07:16:12;;;;;;;7.87;4.60;;;9.10;91.40;;;7.76;57.60;99381.22;10357570;28;96503;-77
2022/04/05 07:21:16;;;;;;;7.13;5.40;;;9.40;89.90;;;7.76;56.72;99371.47;10369103;28;97841;-78
2022/04/05 07:26:21;;;;;;;8.33;4.60;;;9.40;87.60;;;7.78;56.92;99372.09;10354797;28;96664;-78
2022/04/05 07:31:24;;;;;;;6.13;4.50;;;9.40;85.30;;;7.83;57.43;99368.94;10371695;28;96519;-78
2022/04/05 07:36:27;;;;;;;7.93;4.10;;;9.50;85.00;;;7.95;56.28;99364.13;10355853;28;96471;-78
2022/04/05 07:41:31;;;;;;;6.93;4.47;;;9.60;84.20;;;8.04;56.94;99371.88;10378735;28;96733;-78
2022/04/05 07:46:35;;;;;;;10.57;4.50;;;9.70;83.50;;;8.15;55.74;99377.75;10370996;28;96525;-78
2022/04/05 07:51:38;;;;;;;7.23;4.87;;;9.80;82.80;;;8.13;55.92;99372.66;10384299;28;96616;-78
2022/04/05 07:56:41;;;;;;;6.27;4.60;;;9.80;81.90;;;8.21;55.12;99364.66;10377785;28;96719;-78
2022/04/05 08:01:44;;;;;;;7.60;4.73;;;9.90;81.20;;;8.22;54.62;99361.03;10367762;28;96648;-78
2022/04/05 08:06:47;;;;;;;6.07;4.50;;;9.90;80.20;;;8.24;53.89;99361.69;10378692;27;96471;-78
2022/04/05 08:11:49;;;;;;;7.17;4.30;;;9.90;77.40;;;8.36;54.21;99366.63;10378223;28;98291;-78
2022/04/05 08:16:52;;;;;;;8.10;5.20;;;10.00;78.10;;;8.39;53.76;99366.25;10377609;28;96538;-78
2022/04/05 08:21:55;;;;;;;7.43;4.40;;;10.00;76.90;;;8.55;54.03;99361.69;10375470;28;96505;-78
2022/04/05 08:27:00;;;;;;;5.60;3.80;;;10.20;76.90;;;8.75;52.80;99362.06;10376564;28;96611;-78
2022/04/05 08:32:03;;;;;;;7.07;5.00;;;10.30;75.70;;;9.01;52.99;99366.19;10353178;28;96568;-78
2022/04/05 08:37:08;;;;;;;6.73;4.10;;;10.50;75.00;;;9.30;51.74;99360.97;10375051;28;96544;-78
2022/04/05 08:42:12;;;;;;;7.20;4.47;;;10.80;73.90;;;9.63;50.78;99355.31;10358989;28;96457;-78
2022/04/05 08:47:21;;;;;;;5.67;3.70;;;11.10;72.80;;;9.81;49.84;99362.91;10374851;28;96540;-78
2022/04/05 08:52:24;;;;;;;5.97;3.67;;;11.40;71.40;;;9.95;48.80;99348.00;10375779;28;97705;-78
2022/04/05 08:57:28;;;;;;;4.67;3.13;;;11.50;68.90;;;10.31;47.37;99345.41;10376856;28;96425;-78
2022/04/05 09:02:31;;;;;;;4.40;3.10;;;11.70;68.20;;;10.65;47.76;99339.44;10374082;28;96596;-78
2022/04/05 09:07:37;;;;;;;5.07;3.27;;;12.10;67.90;;;10.86;47.28;99331.47;10374856;28;96581;-77
2022/04/05 09:12:51;;;;;;;6.07;3.97;;;12.30;67.10;;;10.89;45.80;99341.72;10358501;28;97138;-78
2022/04/05 09:17:54;;;;;;;11.93;5.73;;;12.50;65.50;;;10.86;46.66;99336.81;10374262;28;96703;-79
2022/04/05 09:23:02;;;;;;;29.30;9.53;;;12.50;65.10;;;11.01;45.12;99351.84;10375773;28;96517;-78
2022/04/05 09:28:08;;;;;;;9.33;3.80;;;12.60;62.60;;;11.21;43.99;99352.81;10359650;28;96614;-79
2022/04/05 09:33:12;;;;;;;6.07;3.33;;;12.80;61.60;;;11.36;42.50;99350.09;10361965;28;96646;-77
2022/04/05 09:38:18;;;;;;;12.73;4.40;;;12.90;59.70;;;11.46;42.72;99348.75;10359584;28;96476;-78
2022/04/05 09:43:22;;;;;;;30.30;9.73;;;13.00;59.30;;;11.83;43.85;99333.44;10375014;28;96450;-77
2022/04/05 09:48:32;;;;;;;16.20;6.38;;;13.30;60.10;;;12.30;40.80;99334.47;10370651;28;96575;-78
2022/04/05 09:53:50;;;;;;;12.55;5.00;;;13.80;58.90;;;12.59;40.51;99330.63;10373187;28;97593;-78
2022/04/05 09:59:12;;;;;;;118.55;29.50;;;14.10;57.40;;;12.70;40.54;99323.88;10374430;28;96564;-78
2022/04/05 10:04:18;;;;;;;138.85;63.30;;;14.20;56.50;;;12.58;40.42;99340.47;10371357;28;96810;-78
2022/04/05 10:09:22;;;;;;;8.40;4.30;;;14.20;55.70;;;12.48;41.40;99334.72;10372940;28;96514;-78
2022/04/05 10:14:26;;;;;;;5.10;3.25;;;14.10;56.10;;;12.70;42.32;99334.53;10371340;28;96566;-78
2022/04/05 10:19:30;;;;;;;8.05;3.47;;;14.20;56.90;;;13.04;41.68;99347.72;10373002;28;96385;-78
2022/04/05 10:24:32;;;;;;;5.03;3.30;;;14.50;57.10;;;12.96;41.76;99331.09;10372802;28;96357;-78
2022/04/05 10:29:37;;;;;;;6.65;3.50;;;14.50;56.80;;;13.00;43.25;99343.81;10370553;28;96667;-78
2022/04/05 10:35:01;;;;;;;5.55;3.92;;;14.50;57.80;;;13.08;43.79;99353.47;10356185;28;96832;-78
2022/04/05 10:40:05;;;;;;;5.45;3.83;;;14.60;58.70;;;13.06;44.74;99340.31;10388989;28;96571;-78
2022/04/05 10:45:15;;;;;;;6.40;3.75;;;14.60;59.20;;;13.29;43.91;99347.13;10375348;28;96520;-78
2022/04/05 10:50:18;;;;;;;6.67;4.30;;;14.70;59.00;;;13.23;43.74;99350.63;10372667;28;96581;-78
2022/04/05 10:55:22;;;;;;;5.70;3.55;;;14.80;58.60;;;12.94;45.61;99349.94;10370541;28;96476;-78
2022/04/05 11:00:26;;;;;;;5.05;3.75;;;14.60;60.00;;;12.59;47.09;99336.78;10371340;28;96734;-77
2022/04/05 11:05:38;;;;;;;3.63;2.40;;;14.30;61.50;;;12.59;46.36;99349.28;10372542;28;97330;-77
2022/04/05 11:10:41;;;;;;;4.00;2.20;;;14.20;61.30;;;12.64;47.45;99336.16;10355830;28;96496;-77
2022/04/05 11:15:49;;;;;;;5.78;2.55;;;14.20;62.10;;;12.38;48.49;99350.25;10386227;28;96451;-78
2022/04/05 11:20:54;;;;;;;2.45;1.88;;;14.00;63.50;;;12.54;49.46;99357.06;10371098;28;96714;-77
2022/04/05 11:26:26;;;;;;;4.63;2.40;;;14.00;64.90;;;12.79;48.81;99368.81;10341682;28;97084;-77
2022/04/05 11:31:33;;;;;;;4.15;2.65;;;14.20;64.50;;;12.93;48.59;99360.81;10379835;28;97618;-78
2022/04/05 11:36:43;;;;;;;4.57;2.80;;;14.40;64.40;;;13.02;47.69;99368.44;10377866;28;96511;-77
2022/04/05 11:41:46;;;;;;;3.53;2.65;;;14.50;63.90;;;13.02;48.39;99352.44;10362010;28;96566;-78
2022/04/05 11:46:51;;;;;;;3.88;2.60;;;14.50;63.80;;;13.01;47.76;99364.09;10378039;28;96438;-77
2022/04/05 11:51:54;;;;;;;2.55;2.00;;;14.50;63.60;;;13.68;47.49;99348.13;10377230;28;97721;-78
2022/04/05 11:57:04;;;;;;;3.10;2.50;;;15.00;64.40;;;14.38;45.47;99354.44;10377530;28;96757;-78
2022/04/05 12:02:07;;;;;;;5.80;4.07;;;15.70;62.60;;;14.71;45.47;99344.44;10377661;28;96722;-78
2022/04/05 12:07:10;;;;;;;5.25;3.20;;;16.10;61.70;;;14.83;44.11;99349.09;10377370;28;96935;-78
2022/04/05 12:12:14;;;;;;;5.40;2.20;;;16.40;59.70;;;14.69;43.67;99346.50;10372539;28;96430;-78
2022/04/05 12:17:23;;;;;;;4.53;3.80;;;16.30;59.00;;;14.79;44.54;99346.00;10376449;28;96563;-78
2022/04/05 12:22:32;;;;;;;2.38;1.73;;;16.40;59.30;;;14.89;45.36;99332.19;10394383;28;96508;-78
2022/04/05 12:27:35;;;;;;;2.38;1.80;;;16.40;59.90;;;14.90;43.30;99304.38;10393344;28;97161;-78
2022/04/05 12:32:38;;;;;;;1.92;1.30;;;16.70;58.00;;;15.26;43.19;99298.31;10376299;28;96461;-78
2022/04/05 12:37:41;;;;;;;1.75;1.33;;;16.90;57.80;;;15.02;43.59;99309.84;10374166;28;96477;-78
2022/04/05 12:42:44;;;;;;;1.90;1.27;;;16.80;57.60;;;14.43;44.77;99320.69;10385158;28;98581;-78
2022/04/05 12:47:47;;;;;;;2.05;1.38;;;16.30;58.30;;;13.93;46.20;99312.50;10375678;28;96571;-78
2022/04/05 12:52:59;;;;;;;2.65;1.92;;;15.80;59.30;;;13.52;47.27;99312.00;10359673;28;96548;-78
2022/04/05 12:58:04;;;;;;;4.20;1.50;;;15.30;60.70;;;13.65;47.48;99312.78;10375614;28;96591;-79
2022/04/05 13:03:09;;;;;;;2.08;1.45;;;15.40;61.40;;;13.89;47.12;99324.63;10363650;28;96646;-78
2022/04/05 13:08:33;;;;;;;3.22;2.70;;;15.60;60.40;;;13.70;46.96;99309.50;10371143;28;96619;-78
2022/04/05 13:13:41;;;;;;;3.00;2.10;;;15.50;60.80;;;13.35;47.63;99312.44;10358590;28;96535;-77
2022/04/05 13:18:48;;;;;;;2.92;2.10;;;15.20;61.20;;;12.90;48.68;99313.25;10359347;28;96480;-77
2022/04/05 13:24:06;;;;;;;2.88;2.00;;;14.70;62.30;;;13.00;48.64;99309.13;10378905;28;96465;-79
2022/04/05 13:29:19;;;;;;;3.97;1.92;;;14.80;62.90;;;13.30;48.81;99298.88;10356579;28;96546;-78
2022/04/05 13:34:25;;;;;;;3.40;2.00;;;15.10;62.90;;;13.67;48.18;99301.88;10375048;28;96560;-78
2022/04/05 13:39:33;;;;;;;5.25;1.85;;;15.40;62.40;;;13.91;48.03;99290.53;10377102;28;96564;-78
2022/04/05 13:44:37;;;;;;;2.72;2.03;;;15.70;62.20;;;13.69;47.56;99307.03;10358120;28;97015;-78
2022/04/05 13:49:41;;;;;;;3.10;2.05;;;15.60;61.00;;;13.34;48.73;99304.63;10374366;28;96483;-78
2022/04/05 13:54:45;;;;;;;5.50;3.28;;;15.20;61.90;;;12.85;49.03;99300.53;10390022;28;96800;-78
2022/04/05 13:59:49;;;;;;;4.47;2.05;;;14.70;62.60;;;12.57;50.79;99296.19;10343310;28;98160;-79
2022/04/05 14:04:52;;;;;;;5.93;2.47;;;14.40;64.30;;;12.41;52.07;99293.06;10368143;28;96592;-79
2022/04/05 14:09:55;;;;;;;3.03;2.10;;;14.10;65.50;;;12.28;52.25;99289.34;10374280;28;96581;-79
2022/04/05 14:14:58;;;;;;;2.37;1.90;;;14.00;65.90;;;12.12;52.63;99284.41;10377209;28;96571;-79
2022/04/05 14:20:01;;;;;;;8.60;2.33;;;13.80;66.20;;;11.92;53.09;99291.47;10391489;28;96404;-78
2022/04/05 14:25:05;;;;;;;3.30;1.80;;;13.60;66.70;;;11.78;53.62;99283.41;10373600;28;96532;-78
2022/04/05 14:30:09;;;;;;;2.10;1.63;;;13.50;67.10;;;11.61;53.31;99266.13;10386169;28;96941;-78
2022/04/05 14:35:13;;;;;;;2.27;1.70;;;13.30;67.60;;;11.48;54.22;99274.03;10388272;28;97029;-78
2022/04/05 14:40:30;;;;;;;3.53;2.20;;;13.20;68.40;;;11.47;54.62;99285.72;10372032;28;96580;-79
2022/04/05 14:45:33;;;;;;;2.60;1.63;;;13.10;69.10;;;11.42;54.47;99282.81;10369303;28;96514;-79
2022/04/05 14:50:36;;;;;;;3.83;1.73;;;13.10;69.40;;;11.42;54.82;99266.84;10371202;28;96587;-79
2022/04/05 14:55:51;;;;;;;2.60;1.43;;;13.10;70.00;;;11.40;55.18;99263.56;10372643;28;96569;-78
2022/04/05 15:00:54;;;;;;;3.27;1.87;;;13.00;70.30;;;11.29;54.97;99272.91;10368116;28;97283;-78
2022/04/05 15:05:57;;;;;;;3.17;2.20;;;12.90;70.30;;;11.25;55.54;99282.28;10354087;28;96631;-78
2022/04/05 15:11:00;;;;;;;4.87;3.53;;;12.90;70.90;;;11.24;55.92;99278.81;10376929;28;97625;-77
2022/04/05 15:16:04;;;;;;;3.43;1.90;;;12.90;71.20;;;11.17;56.49;99285.91;10378221;28;96965;-79
2022/04/05 15:21:07;;;;;;;2.80;1.97;;;12.80;72.00;;;11.07;56.64;99284.59;10378100;28;96619;-79
2022/04/05 15:26:10;;;;;;;3.00;1.70;;;12.70;72.60;;;10.98;57.24;99287.41;10374887;28;97313;-78
2022/04/05 15:31:13;;;;;;;2.60;1.97;;;12.60;73.30;;;10.93;57.12;99287.16;10361784;28;96698;-79
2022/04/05 15:36:17;;;;;;;3.10;1.77;;;12.60;73.30;;;10.85;57.87;99291.78;10350458;28;96664;-79
2022/04/05 15:41:20;;;;;;;3.10;2.10;;;12.50;74.10;;;10.76;58.14;99299.09;10379212;28;98253;-78
2022/04/05 15:46:23;;;;;;;2.70;1.80;;;12.40;74.60;;;10.76;58.76;99282.31;10358612;28;96577;-80
2022/04/05 15:51:27;;;;;;;2.87;2.10;;;12.40;75.40;;;10.73;59.25;99294.13;10373862;28;97026;-79
2022/04/05 15:56:30;;;;;;;2.63;2.10;;;12.40;76.40;;;10.62;59.23;99286.69;10385399;28;97716;-80
2022/04/05 16:01:33;;;;;;;3.47;2.20;;;12.30;76.30;;;10.58;59.76;99291.56;10387809;28;96560;-79
2022/04/05 16:06:36;;;;;;;2.70;1.90;;;12.20;77.10;;;10.53;60.15;99293.13;10374570;28;98095;-80
2022/04/05 16:11:39;;;;;;;3.17;2.00;;;12.20;77.70;;;10.49;60.77;99295.34;10376482;28;96585;-80
2022/04/05 16:16:42;;;;;;;3.33;2.20;;;12.20;78.60;;;10.45;60.93;99297.56;10388311;28;96455;-79
2022/04/05 16:21:45;;;;;;;3.53;2.27;;;12.10;78.80;;;10.41;61.12;99292.81;10399473;28;96575;-79
2022/04/05 16:26:52;;;;;;;3.63;2.20;;;12.10;79.30;;;10.37;61.68;99295.00;10392483;28;96749;-79
2022/04/05 16:31:55;;;;;;;4.07;2.40;;;12.10;80.00;;;10.29;61.57;99295.13;10389939;28;97634;-79
2022/04/05 16:37:03;;;;;;;6.00;2.17;;;12.00;80.80;;;10.19;61.85;99311.38;10365263;28;98311;-79
2022/04/05 16:42:06;;;;;;;2.73;1.83;;;11.90;81.20;;;10.10;61.92;99322.25;10407449;27;98288;-79
2022/04/05 16:47:09;;;;;;;2.67;1.67;;;11.80;81.90;;;10.00;61.82;99324.38;10390249;28;96690;-79
2022/04/05 16:52:12;;;;;;;3.07;1.20;;;11.70;81.90;;;9.88;61.93;99326.69;10412354;28;96693;-80
2022/04/05 16:57:15;;;;;;;1.83;1.00;;;11.60;82.20;;;9.75;61.98;99337.94;10389025;28;98206;-77
2022/04/05 17:02:19;;;;;;;2.53;0.83;;;11.50;82.30;;;9.64;62.01;99341.88;10402456;28;96762;-79
2022/04/05 17:07:21;;;;;;;1.20;0.87;;;11.40;82.30;;;9.55;62.53;99352.78;10385044;28;97107;-79
2022/04/05 17:12:25;;;;;;;1.57;1.10;;;11.30;83.20;;;9.45;63.45;99366.28;10385884;28;97296;-79
2022/04/05 17:17:28;;;;;;;1.97;1.17;;;11.20;84.60;;;9.37;64.34;99361.06;10392284;28;96706;-79
2022/04/05 17:22:32;;;;;;;2.80;1.50;;;11.10;86.10;;;9.26;64.63;99356.19;10376053;28;97056;-78
2022/04/05 17:27:36;;;;;;;3.23;1.80;;;11.00;87.00;;;9.15;65.48;99368.03;10408953;28;96918;-79
2022/04/05 17:32:39;;;;;;;4.53;2.47;;;10.90;88.90;;;9.02;66.37;99379.25;10371859;28;97443;-78
2022/04/05 17:37:43;;;;;;;4.27;2.53;;;10.80;90.30;;;8.92;67.08;99381.31;10410860;28;96623;-79
2022/04/05 17:42:46;;;;;;;5.87;3.43;;;10.70;91.10;;;8.84;67.63;99384.03;10397369;28;96984;-82
2022/04/05 17:47:49;;;;;;;2.67;1.77;;;10.60;91.70;;;8.76;68.25;99384.91;10393896;28;97106;-78
2022/04/05 17:52:53;;;;;;;2.23;1.60;;;10.50;92.90;;;8.71;68.49;99387.25;10395490;28;98449;-79
2022/04/05 17:57:56;;;;;;;2.70;1.90;;;10.50;93.50;;;8.67;68.89;99385.97;10381726;28;96528;-78
2022/04/05 18:02:58;;;;;;;2.30;1.70;;;10.40;94.50;;;8.61;69.23;99394.59;10369387;28;96955;-79
2022/04/05 18:08:02;;;;;;;3.67;2.33;;;10.40;94.90;;;8.58;69.75;99397.63;10399304;28;96774;-79
2022/04/05 18:13:07;;;;;;;3.93;2.33;;;10.30;95.90;;;8.54;70.02;99402.41;10365538;28;97965;-78
2022/04/05 18:18:10;;;;;;;3.83;2.30;;;10.30;96.50;;;8.50;70.04;99411.69;10399775;28;96534;-78
2022/04/05 18:23:13;;;;;;;3.13;2.03;;;10.30;97.10;;;8.44;70.56;99416.88;10405428;28;98569;-78
2022/04/05 18:28:16;;;;;;;4.57;2.80;;;10.20;97.30;;;8.38;70.85;99422.84;10419144;27;96569;-78
2022/04/05 18:33:19;;;;;;;3.57;2.57;;;10.10;98.30;;;8.31;71.47;99434.09;10392026;28;97063;-78
2022/04/05 18:38:24;;;;;;;5.60;3.03;;;10.10;99.50;;;8.24;71.79;99438.44;10376828;28;96520;-78
2022/04/05 18:43:27;;;;;;;3.63;2.50;;;10.00;99.70;;;8.17;72.26;99440.13;10385896;27;96566;-78
2022/04/05 18:48:31;;;;;;;3.60;2.63;;;9.90;99.90;;;8.09;72.50;99444.59;10410526;27;96551;-78
2022/04/05 18:53:35;;;;;;;3.53;2.60;;;9.90;99.90;;;8.05;72.51;99449.44;10369189;28;96979;-78
2022/04/05 18:58:38;;;;;;;3.80;2.90;;;9.80;99.90;;;8.06;72.75;99453.72;10374717;28;97130;-78
2022/04/05 19:03:41;;;;;;;5.33;3.23;;;9.80;99.90;;;8.07;73.23;99454.53;10377474;28;96501;-78
2022/04/05 19:08:46;;;;;;;4.00;2.97;;;9.80;99.90;;;8.10;73.37;99456.84;10337124;28;98580;-78
2022/04/05 19:13:48;;;;;;;4.53;3.23;;;9.80;99.90;;;8.11;73.63;99451.38;10362096;28;98575;-78
2022/04/05 19:18:51;;;;;;;5.57;3.63;;;9.80;99.90;;;8.10;73.75;99462.16;10347406;28;96448;-78
2022/04/05 19:23:54;;;;;;;5.40;3.57;;;9.80;99.90;;;8.04;73.94;99459.19;10344864;28;96574;-78
2022/04/05 19:28:57;;;;;;;5.20;3.73;;;9.70;99.90;;;7.98;74.31;99465.16;10343449;28;98008;-78
2022/04/05 19:34:00;;;;;;;6.17;3.90;;;9.70;99.90;;;7.94;74.58;99463.00;10346197;28;97707;-78
2022/04/05 19:39:03;;;;;;;5.43;3.90;;;9.70;99.90;;;7.88;75.17;99474.25;10309800;28;96793;-78
2022/04/05 19:44:06;;;;;;;6.67;3.87;;;9.60;99.90;;;7.82;75.36;99480.22;10328220;28;96630;-78
2022/04/05 19:49:09;;;;;;;6.47;3.63;;;9.60;99.90;;;7.76;75.68;99471.97;10349500;28;96568;-79
2022/04/05 19:54:12;;;;;;;5.23;3.90;;;9.50;99.90;;;7.74;76.09;99471.31;10356540;28;98782;-78
2022/04/05 19:59:15;;;;;;;6.33;4.03;;;9.50;99.90;;;7.72;76.21;99480.38;10352924;28;96746;-78
2022/04/05 20:04:18;;;;;;;5.83;3.93;;;9.40;99.90;;;7.72;76.26;99488.31;10331242;28;96626;-78
2022/04/05 20:09:22;;;;;;;6.73;4.43;;;9.40;99.90;;;7.69;76.49;99493.97;10321060;28;96656;-78
2022/04/05 20:14:25;;;;;;;6.00;4.20;;;9.40;99.90;;;7.64;76.61;99494.44;10353738;28;96545;-78
2022/04/05 20:19:28;;;;;;;5.77;4.10;;;9.40;99.90;;;7.61;76.66;99484.19;10348240;28;98111;-78
2022/04/05 20:24:31;;;;;;;6.13;4.53;;;9.40;99.90;;;7.56;76.99;99480.38;10361448;28;97231;-78
2022/04/05 20:29:34;;;;;;;5.33;3.80;;;9.30;99.90;;;7.43;77.24;99481.72;10398104;27;96526;-78
2022/04/05 20:34:37;;;;;;;6.90;4.53;;;9.20;99.90;;;7.35;77.72;99473.78;10372905;28;97074;-78
2022/04/05 20:39:40;;;;;;;6.77;4.70;;;9.20;99.90;;;7.30;78.25;99470.81;10392938;28;96991;-78
2022/04/05 20:44:43;;;;;;;7.43;4.53;;;9.10;99.90;;;7.29;78.63;99470.97;10392336;28;96618;-78
2022/04/05 20:49:47;;;;;;;7.53;4.77;;;9.00;99.90;;;7.25;78.56;99473.13;10312690;28;96518;-78
2022/04/05 20:54:51;;;;;;;7.33;5.07;;;9.00;99.90;;;7.21;78.90;99469.16;10326240;28;96861;-78
2022/04/05 20:59:53;;;;;;;11.23;5.33;;;9.00;99.90;;;7.17;79.22;99462.56;10374533;28;96372;-78
2022/04/05 21:04:58;;;;;;;7.43;5.30;;;8.90;99.90;;;7.18;79.47;99465.03;10391935;28;98397;-78
2022/04/05 21:10:01;;;;;;;7.13;4.77;;;8.90;99.90;;;7.16;79.55;99463.53;10394373;28;96659;-78
2022/04/05 21:15:05;;;;;;;6.43;4.90;;;8.90;99.90;;;7.16;79.60;99469.66;10383862;28;96788;-78